Ana Sayfa
METAR-TAF:

METAR-TAF

Havaalanları :

Bay City, Teksas, Amerika Birleşik Devletleri

Enlem: 28-58-23N, Boylam: 095-51-48W, yükseklik: 14 m

Güncel hava durumu gözlemi

Rapor saat 04:55 UTC de 28 dakika önce yapıldı.
Rüzgar güney/güneydoğudan 3 kt
Sıcaklık 25°C
Nem 89%
Basınç 1016 hPa
Görüş mesafesi: 16.1 km
Açık gökyüzü

METAR: KBYY 160455Z AUTO 16003KT 10SM CLR 25/23 A2999 RMK AO2 T02530240

Saat: 00:23 (05:23 UTC)


TAF: eksik

4.000'den fazla havaalanı için hava durumu gözlemleri ve tahminleri (METAR ve TAF raporları).

Kullanılabilir istasyonlar harita üzerinde sarı ve kırmızı noktalarla gösterilir.

İstasyonun adını görmek için fareyi noktanın üzerinde gezdirin.

Sonrasında hava gözlem ve tahminlerini görmek için tıklayın.

Haritayı değiştirmek için: yaklaştırmak için siyah artı işaretli yeşil düğmeye ve uzaklaştırmak için de eksi işaretli düğmeye hızla tıklayın; bitişik haritalar için yeşil okları kullanın.


METAR-TAF: